Flight Track Log - Related Links

Times and Time Zones

All times are in EST time to prevent confusion due to time zone crossing. See the N814ND flight status page for this flight to view local times or setup timezone preferences in your user account.

Time Position Orientation Groundspeed Altitude Reporting Facility
EST Latitude Longitude Course Direction KTS MPH feet Rate Location/Type
Sat 12:21:33 PM 41.5811 -71.3944 111° Southeast 127 146 1,500  Level Boston Center
Sat 12:22:14 PM 41.6039 -71.3747 33° Northeast 139 160 2,000 290 Climbing Boston Center
Sat 12:22:35 PM 41.6144 -71.3692 21° North 145 167 1,800 -98 Descending Boston Center
Sat 12:23:15 PM 41.6428 -71.3719 356° North 140 161 1,900 103 Climbing Boston Center
Sat 12:23:33 PM 41.6544 -71.3750 349° North 141 162 1,900 98 Level Boston Center
Sat 12:24:16 PM 41.6822 -71.3589 23° Northeast 159 183 2,000  Climbing Boston Center
Sat 12:24:34 PM 41.6922 -71.3486 38° Northeast 166 191 1,900 -80 Descending Boston Center
Sat 12:25:31 PM 41.7286 -71.3183 32° Northeast 163 188 1,900 58 Level Boston Center
Sat 12:26:17 PM 41.7631 -71.2906 31° Northeast 165 190 2,000  Climbing Boston Center
Sat 12:26:37 PM 41.7731 -71.2797 39° Northeast 167 192 1,900  Descending Boston Center
Sat 12:27:20 PM 41.8017 -71.2572 30° Northeast 166 191 2,000  Climbing Boston Center
Sat 12:27:38 PM 41.8139 -71.2486 28° Northeast 168 193 1,900  Descending Boston Center
Sat 12:28:20 PM 41.8417 -71.2250 32° Northeast 166 191 2,000 -100 Climbing Boston Center
Sat 12:28:38 PM 41.8528 -71.2164 30° Northeast 168 193 1,800  Descending Boston Center
Sat 12:29:21 PM 41.8847 -71.2153 North 165 190 2,000 90 Climbing Boston Center
Sat 12:29:45 PM 41.9000 -71.2189 350° North 146 168 1,900 -33 Descending Boston Center
Sat 12:32:24 PM 42.0000 -71.1500 27° Northeast 157 181 1,900  Level KA90
Sat 12:33:24 PM 42.0167 -71.1000 66° East 168 193 1,900 50 Level KA90
Sat 12:34:24 PM 42.0667 -71.0833 14° North 145 167 2,000 -150 Climbing KA90
Sat 12:35:24 PM 42.1000 -71.1167 323° Northwest 138 159 1,600 -350 Descending KA90
Sat 12:36:24 PM 42.1333 -71.1333 340° North 119 137 1,300 -350 Descending KA90
Sat 12:37:24 PM 42.1667 -71.1500 340° North 117 135 900 -400 Descending KA90

Login

Don't have an account? Register now (free) for customized features, flight alerts, and more!